Time;durP1;ratioP1;P1;durP2;ratioP2;P2;SDS_P1;SDS_P2;PMS_P1;PMS_P2;Temp;Humidity;BMP_temperature;BMP_pressure;BME280_temperature;BME280_humidity;BME280_pressure;Samples;Min_cycle;Max_cycle;Signal;HPM_P1;HPM_P2
2022/07/01 00:00:15;;;;;;;11.35;2.72;;;14.70;99.90;;;;;;4977177;28;20458;-83
2022/07/01 00:02:40;;;;;;;7.22;2.47;;;14.60;99.90;;;;;;4977131;28;20097;-83
2022/07/01 00:05:06;;;;;;;5.25;2.08;;;14.70;99.90;;;;;;4976976;28;20403;-84
2022/07/01 00:07:32;;;;;;;6.38;2.40;;;14.70;99.90;;;;;;4977065;28;20402;-82
2022/07/01 00:09:57;;;;;;;6.50;2.40;;;14.70;99.90;;;;;;4961063;28;20387;-84
2022/07/01 00:12:23;;;;;;;8.00;2.35;;;14.70;99.90;;;;;;4977702;28;20197;-83
2022/07/01 00:14:49;;;;;;;6.18;2.25;;;14.70;99.90;;;;;;4961179;28;20537;-83
2022/07/01 00:17:14;;;;;;;9.65;2.55;;;14.70;99.90;;;;;;4944877;28;20516;-82
2022/07/01 00:19:40;;;;;;;7.30;2.20;;;14.70;99.90;;;;;;4929130;28;20360;-83
2022/07/01 00:22:07;;;;;;;5.03;2.25;;;14.70;99.90;;;;;;4976956;28;20042;-82
2022/07/01 00:24:32;;;;;;;5.63;2.60;;;14.70;99.90;;;;;;4976603;28;20094;-82
2022/07/01 00:26:58;;;;;;;6.13;2.30;;;14.70;99.90;;;;;;4977660;28;20517;-84
2022/07/01 00:29:24;;;;;;;5.13;2.33;;;14.70;99.90;;;;;;4944744;28;20129;-85
2022/07/01 00:31:49;;;;;;;7.25;2.58;;;14.70;99.90;;;;;;4977479;28;20137;-83
2022/07/01 00:34:15;;;;;;;5.97;2.15;;;14.80;99.90;;;;;;4960630;28;20482;-84
2022/07/01 00:36:41;;;;;;;5.85;2.25;;;14.80;99.90;;;;;;4993915;28;20057;-85
2022/07/01 00:39:06;;;;;;;7.45;2.53;;;14.80;99.90;;;;;;4960893;28;20133;-83
2022/07/01 00:41:32;;;;;;;6.53;2.13;;;14.80;99.90;;;;;;4976229;28;20133;-82
2022/07/01 00:43:57;;;;;;;5.50;2.30;;;14.70;99.90;;;;;;4976794;28;20089;-83
2022/07/01 00:46:24;;;;;;;7.50;2.50;;;14.80;99.90;;;;;;4976807;28;20121;-83
2022/07/01 00:48:51;;;;;;;7.93;2.40;;;14.80;99.90;;;;;;4960759;28;20071;-83
2022/07/01 00:51:18;;;;;;;8.63;2.90;;;14.80;99.90;;;;;;4945235;28;20058;-83
2022/07/01 00:53:43;;;;;;;5.28;2.35;;;14.80;99.90;;;;;;4944203;28;20052;-82
2022/07/01 00:56:09;;;;;;;4.15;2.20;;;14.80;99.90;;;;;;4963252;28;20046;-82
2022/07/01 00:58:34;;;;;;;3.78;2.40;;;14.80;99.90;;;;;;4964235;28;20046;-84
2022/07/01 01:01:00;;;;;;;5.53;2.10;;;14.90;99.90;;;;;;4980429;28;20051;-83
2022/07/01 01:03:26;;;;;;;5.43;2.63;;;14.80;99.90;;;;;;4964285;28;20505;-83
2022/07/01 01:05:54;;;;;;;3.75;2.33;;;14.80;99.90;;;;;;4948140;28;20133;-84
2022/07/01 01:08:20;;;;;;;6.82;2.60;;;14.80;99.90;;;;;;4949833;28;20054;-83
2022/07/01 01:10:46;;;;;;;5.97;2.55;;;14.80;99.90;;;;;;4963970;28;20375;-83
2022/07/01 01:13:12;;;;;;;3.47;2.10;;;14.80;99.90;;;;;;4964133;28;20391;-84
2022/07/01 01:15:38;;;;;;;3.08;1.90;;;14.70;99.90;;;;;;4980117;28;20129;-86
2022/07/01 01:18:03;;;;;;;5.30;1.90;;;14.80;99.90;;;;;;4979987;28;20518;-83
2022/07/01 01:20:34;;;;;;;7.57;1.98;;;14.70;99.90;;;;;;4947832;28;20054;-83
2022/07/01 01:23:00;;;;;;;3.92;2.20;;;14.80;99.90;;;;;;4963897;28;20065;-82
2022/07/01 01:25:25;;;;;;;2.60;1.88;;;14.80;99.90;;;;;;4947741;28;20061;-87
2022/07/01 01:27:51;;;;;;;2.15;1.67;;;14.70;99.90;;;;;;4997195;28;20046;-84
2022/07/01 01:30:17;;;;;;;3.75;1.92;;;14.70;99.90;;;;;;4979798;28;20050;-84
2022/07/01 01:32:42;;;;;;;2.70;1.42;;;14.80;99.90;;;;;;4980728;28;20378;-84
2022/07/01 01:35:09;;;;;;;2.08;1.33;;;14.70;99.90;;;;;;4981090;28;20042;-82
2022/07/01 01:37:34;;;;;;;1.33;1.13;;;14.70;99.90;;;;;;4963822;28;20046;-81
2022/07/01 01:40:00;;;;;;;7.22;1.70;;;14.60;99.90;;;;;;4980549;28;20052;-82
2022/07/01 01:42:26;;;;;;;2.60;1.10;;;14.60;99.90;;;;;;4963449;28;20120;-83
2022/07/01 01:44:52;;;;;;;2.80;1.10;;;14.50;99.90;;;;;;4979661;28;20113;-83
2022/07/01 01:47:18;;;;;;;1.38;1.00;;;14.50;99.90;;;;;;4947590;28;20050;-82
2022/07/01 01:49:44;;;;;;;2.25;1.10;;;14.50;99.90;;;;;;4979732;28;20042;-83
2022/07/01 01:52:09;;;;;;;1.60;1.33;;;14.40;99.90;;;;;;4996773;28;20042;-82
2022/07/01 01:54:36;;;;;;;2.20;1.25;;;14.50;99.90;;;;;;4996697;28;20073;-82
2022/07/01 01:57:03;;;;;;;2.13;1.17;;;14.50;99.90;;;;;;4979477;28;20460;-85
2022/07/01 01:59:29;;;;;;;2.25;1.08;;;14.50;99.90;;;;;;4979313;28;20505;-85
2022/07/01 02:01:54;;;;;;;2.92;1.80;;;14.50;99.90;;;;;;4979086;28;20038;-83
2022/07/01 02:04:20;;;;;;;3.35;1.30;;;14.50;99.90;;;;;;4963261;28;20054;-82
2022/07/01 02:06:46;;;;;;;4.53;1.60;;;14.40;99.90;;;;;;4978641;28;20121;-82
2022/07/01 02:09:13;;;;;;;1.50;1.35;;;14.50;99.90;;;;;;4962907;28;20043;-83
2022/07/01 02:11:38;;;;;;;2.65;1.50;;;14.50;99.90;;;;;;4979961;28;20058;-84
2022/07/01 02:14:04;;;;;;;3.35;1.60;;;14.50;99.90;;;;;;4947445;28;20077;-83
2022/07/01 02:16:30;;;;;;;2.33;1.60;;;14.50;99.90;;;;;;4979426;28;20498;-83
2022/07/01 02:18:55;;;;;;;2.70;1.75;;;14.50;99.90;;;;;;4962939;28;20046;-82
2022/07/01 02:21:21;;;;;;;2.95;2.00;;;14.50;99.90;;;;;;4978914;28;20493;-84
2022/07/01 02:23:47;;;;;;;3.85;2.70;;;14.50;99.90;;;;;;4979585;28;20058;-83
2022/07/01 02:26:13;;;;;;;3.80;2.60;;;14.50;99.90;;;;;;4962165;28;20058;-82
2022/07/01 02:28:38;;;;;;;3.22;2.50;;;14.50;99.90;;;;;;4978439;28;20050;-83
2022/07/01 02:31:04;;;;;;;4.20;2.97;;;14.50;99.90;;;;;;4978952;28;20084;-84
2022/07/01 02:33:30;;;;;;;5.10;2.90;;;14.50;99.90;;;;;;4963474;28;20053;-83
2022/07/01 02:35:55;;;;;;;5.75;4.15;;;14.50;99.90;;;;;;4947237;28;20105;-82
2022/07/01 02:38:21;;;;;;;5.78;3.08;;;14.40;99.90;;;;;;4978949;28;20058;-83
2022/07/01 02:40:47;;;;;;;5.75;3.20;;;14.40;99.90;;;;;;4962437;28;20050;-82
2022/07/01 02:43:12;;;;;;;5.55;3.13;;;14.40;99.90;;;;;;4978616;28;20054;-83
2022/07/01 02:45:38;;;;;;;4.75;3.47;;;14.40;99.90;;;;;;4962514;28;20086;-84
2022/07/01 02:48:05;;;;;;;4.97;3.28;;;14.40;99.90;;;;;;4946622;28;20431;-82
2022/07/01 02:50:31;;;;;;;5.75;3.50;;;14.40;99.90;;;;;;4962981;28;20066;-82
2022/07/01 02:52:57;;;;;;;7.93;3.92;;;14.40;99.90;;;;;;4946724;28;20046;-82
2022/07/01 02:55:22;;;;;;;4.22;3.72;;;14.40;99.90;;;;;;4962529;28;20042;-84
2022/07/01 02:57:51;;;;;;;6.18;3.78;;;14.40;99.90;;;;;;4962654;28;20122;-83
2022/07/01 03:00:17;;;;;;;5.85;3.92;;;14.40;99.90;;;;;;4978268;28;20059;-83
2022/07/01 03:02:43;;;;;;;5.68;3.90;;;14.40;99.90;;;;;;4978196;28;20160;-83
2022/07/01 03:05:10;;;;;;;6.28;4.38;;;14.40;99.90;;;;;;4946105;28;20085;-84
2022/07/01 03:07:36;;;;;;;7.47;4.07;;;14.40;99.90;;;;;;4962456;28;20117;-82
2022/07/01 03:10:03;;;;;;;4.57;3.70;;;14.40;99.90;;;;;;4961526;28;20054;-83
2022/07/01 03:12:29;;;;;;;5.60;4.30;;;14.40;99.90;;;;;;4978251;28;20050;-84
2022/07/01 03:15:00;;;;;;;6.38;3.90;;;14.30;99.90;;;;;;4977826;28;20153;-84
2022/07/01 03:17:26;;;;;;;7.03;4.32;;;14.30;99.90;;;;;;4977629;28;20046;-86
2022/07/01 03:19:52;;;;;;;6.97;4.80;;;14.50;99.90;;;;;;4946342;28;20058;-85
2022/07/01 03:22:19;;;;;;;6.18;4.10;;;14.40;99.90;;;;;;4945748;28;20046;-86
2022/07/01 03:24:45;;;;;;;5.40;4.70;;;14.30;99.90;;;;;;4929950;28;20061;-86
2022/07/01 03:27:11;;;;;;;8.20;5.63;;;14.30;99.90;;;;;;4962036;28;20046;-87
2022/07/01 03:29:36;;;;;;;8.32;5.03;;;14.30;99.90;;;;;;4978116;28;20071;-87
2022/07/01 03:32:02;;;;;;;5.97;5.03;;;14.30;99.90;;;;;;4978322;28;20499;-86
2022/07/01 03:34:28;;;;;;;8.40;5.60;;;14.40;99.90;;;;;;4945830;28;20053;-87
2022/07/01 03:36:54;;;;;;;6.10;5.20;;;14.30;99.90;;;;;;4961581;28;20058;-87
2022/07/01 03:39:19;;;;;;;8.20;5.93;;;14.40;99.90;;;;;;4977706;28;20042;-88
2022/07/01 03:41:45;;;;;;;8.00;5.05;;;14.40;99.90;;;;;;4961211;28;20494;-85
2022/07/01 03:44:11;;;;;;;9.20;6.32;;;14.40;99.90;;;;;;4945439;28;20046;-87
2022/07/01 03:46:37;;;;;;;8.18;6.10;;;14.40;99.90;;;;;;4961465;28;20042;-86
2022/07/01 03:49:04;;;;;;;7.45;6.22;;;14.40;99.90;;;;;;4945461;28;20066;-85
2022/07/01 03:51:29;;;;;;;7.85;6.28;;;14.40;99.90;;;;;;4961559;28;20057;-86
2022/07/01 03:56:39;;;;;;;10.35;6.65;;;14.40;99.90;;;;;;4978677;28;20053;-88
2022/07/01 03:59:04;;;;;;;9.77;7.68;;;14.50;99.90;;;;;;4963996;28;20066;-87
2022/07/01 04:01:31;;;;;;;11.95;8.55;;;14.50;99.90;;;;;;4965608;28;20069;-88
2022/07/01 04:03:56;;;;;;;14.07;9.73;;;14.50;99.90;;;;;;4946754;28;20054;-84
2022/07/01 04:06:22;;;;;;;14.50;10.20;;;14.60;99.90;;;;;;4961424;28;20108;-84
2022/07/01 04:08:49;;;;;;;14.07;10.82;;;14.70;99.90;;;;;;4961407;28;20375;-84
2022/07/01 04:11:15;;;;;;;17.67;13.05;;;14.70;99.90;;;;;;4961947;28;20097;-83
2022/07/01 04:13:40;;;;;;;18.75;12.48;;;14.70;99.90;;;;;;4945429;28;20141;-84
2022/07/01 04:16:06;;;;;;;14.82;12.68;;;14.70;99.90;;;;;;4977251;28;20462;-85
2022/07/01 04:18:32;;;;;;;20.25;14.18;;;14.70;99.90;;;;;;4977242;28;20057;-84
2022/07/01 04:23:42;;;;;;;22.23;14.77;;;14.70;99.90;;;;;;4977729;28;20057;-85
2022/07/01 04:26:07;;;;;;;20.25;15.38;;;14.70;99.90;;;;;;4961322;28;20562;-85
2022/07/01 04:28:33;;;;;;;21.55;16.20;;;14.80;99.90;;;;;;4961021;28;20058;-85
2022/07/01 04:30:59;;;;;;;23.20;16.60;;;14.80;99.90;;;;;;4977167;28;20047;-84
2022/07/01 04:33:25;;;;;;;19.45;16.08;;;14.80;99.90;;;;;;4977372;28;20046;-84
2022/07/01 04:35:51;;;;;;;29.45;18.20;;;14.80;99.90;;;;;;4977602;28;20545;-85
2022/07/01 04:38:17;;;;;;;24.48;17.92;;;14.80;99.90;;;;;;4961909;28;20130;-84
2022/07/01 04:41:58;;;;;;;33.45;20.30;;;14.80;99.90;;;;;;4977221;28;20116;-85
2022/07/01 04:43:28;;;;;;;30.20;19.92;;;14.70;99.90;;;;;;4976596;28;20069;-84
2022/07/01 04:45:55;;;;;;;32.50;21.33;;;14.80;99.90;;;;;;4976873;28;20483;-85
2022/07/01 04:48:20;;;;;;;34.55;21.77;;;14.90;99.90;;;;;;4961516;28;20364;-84
2022/07/01 04:50:46;;;;;;;29.30;20.85;;;14.90;99.90;;;;;;4960944;28;20137;-85
2022/07/01 04:53:13;;;;;;;31.50;22.08;;;14.90;99.90;;;;;;4976828;28;20112;-85
2022/07/01 04:55:38;;;;;;;37.95;24.23;;;14.90;99.90;;;;;;4976796;28;20051;-87
2022/07/01 04:58:05;;;;;;;35.53;22.75;;;14.90;99.90;;;;;;4961133;28;20054;-85
2022/07/01 05:00:31;;;;;;;39.83;24.50;;;14.90;99.90;;;;;;4978630;28;20046;-86
2022/07/01 05:02:57;;;;;;;43.92;27.98;;;14.80;99.90;;;;;;4960643;28;20493;-84
2022/07/01 05:05:22;;;;;;;46.33;27.63;;;14.90;99.90;;;;;;4977655;28;20376;-84
2022/07/01 05:07:48;;;;;;;43.53;27.70;;;14.90;99.90;;;;;;4977073;28;20367;-84
2022/07/01 05:10:14;;;;;;;44.35;29.13;;;14.90;99.90;;;;;;4976758;28;20069;-85
2022/07/01 05:12:39;;;;;;;45.15;28.23;;;14.90;99.90;;;;;;4961212;28;20088;-84
2022/07/01 05:15:06;;;;;;;48.00;30.52;;;14.80;99.90;;;;;;4960892;28;20442;-84
2022/07/01 05:23:01;;;;;;;52.38;32.97;;;14.90;99.90;;;;;;4962883;28;20144;-84
2022/07/01 05:25:27;;;;;;;47.50;31.80;;;14.90;99.90;;;;;;4960407;28;20209;-85
2022/07/01 05:27:54;;;;;;;50.35;31.90;;;14.90;99.90;;;;;;4960568;28;20501;-86
2022/07/01 05:30:23;;;;;;;44.50;30.52;;;14.90;99.90;;;;;;4960568;28;20053;-85
2022/07/01 05:32:48;;;;;;;46.20;31.48;;;14.90;99.90;;;;;;4961151;28;20083;-85
2022/07/01 05:35:14;;;;;;;45.85;30.38;;;15.00;99.90;;;;;;4944636;28;20042;-84
2022/07/01 05:37:40;;;;;;;48.22;30.83;;;15.00;99.90;;;;;;4976401;28;20049;-86
2022/07/01 05:40:06;;;;;;;47.13;30.35;;;15.00;99.90;;;;;;4944177;28;20129;-87
2022/07/01 05:42:32;;;;;;;46.50;31.30;;;15.00;99.90;;;;;;4978824;28;20058;-84
2022/07/01 05:44:58;;;;;;;46.25;30.75;;;15.10;99.90;;;;;;4980305;28;20138;-85
2022/07/01 05:47:23;;;;;;;49.45;31.85;;;15.10;99.90;;;;;;4980615;28;20133;-85
2022/07/01 05:49:49;;;;;;;48.55;31.50;;;15.20;99.90;;;;;;4963738;28;20129;-85
2022/07/01 05:52:15;;;;;;;47.30;33.03;;;15.20;99.90;;;;;;4963819;28;20050;-84
2022/07/01 05:54:40;;;;;;;53.65;32.70;;;15.30;99.90;;;;;;4964009;28;20078;-85
2022/07/01 05:57:06;;;;;;;44.78;31.15;;;15.30;99.90;;;;;;4964136;28;20046;-87
2022/07/01 05:59:31;;;;;;;44.40;31.38;;;15.40;99.90;;;;;;4980514;28;20052;-85
2022/07/01 06:01:57;;;;;;;44.22;30.92;;;15.50;99.90;;;;;;4980518;28;20431;-92
2022/07/01 06:04:23;;;;;;;46.35;33.97;;;15.60;99.90;;;;;;4980289;28;20458;-85
2022/07/01 06:06:48;;;;;;;44.78;31.55;;;15.60;99.90;;;;;;4978939;28;20050;-86
2022/07/01 06:09:14;;;;;;;44.95;31.95;;;15.60;99.90;;;;;;4979671;28;20395;-84
2022/07/01 06:11:40;;;;;;;41.75;31.30;;;15.70;99.90;;;;;;4963448;28;20039;-85
2022/07/01 06:14:05;;;;;;;42.55;30.83;;;15.70;99.90;;;;;;4978915;28;20054;-85
2022/07/01 06:16:31;;;;;;;43.17;31.23;;;15.80;99.90;;;;;;4963288;28;20479;-90
2022/07/01 06:18:56;;;;;;;40.70;31.10;;;15.90;99.90;;;;;;4963657;28;20053;-86
2022/07/01 06:21:22;;;;;;;40.10;30.95;;;15.80;99.90;;;;;;4963147;28;20050;-86
2022/07/01 06:23:48;;;;;;;40.90;29.98;;;15.80;99.90;;;;;;4980377;28;20395;-84
2022/07/01 06:26:14;;;;;;;44.90;31.48;;;15.70;99.90;;;;;;4981346;28;20046;-84
2022/07/01 06:28:40;;;;;;;40.47;32.35;;;15.70;99.90;;;;;;4981963;28;20046;-85
2022/07/01 06:31:06;;;;;;;37.67;29.98;;;15.70;99.90;;;;;;4981901;28;20133;-85
2022/07/01 06:33:32;;;;;;;40.33;31.23;;;15.90;99.90;;;;;;4980000;28;20141;-87
2022/07/01 06:35:58;;;;;;;44.22;31.98;;;15.90;99.90;;;;;;4963422;28;20053;-85
2022/07/01 06:38:24;;;;;;;37.97;30.27;;;16.00;99.90;;;;;;4979031;28;20042;-85
2022/07/01 06:43:34;;;;;;;36.72;29.58;;;16.10;99.90;;;;;;4966165;28;20121;-86
2022/07/01 06:46:00;;;;;;;37.92;29.95;;;16.20;99.90;;;;;;4963633;28;20205;-85
2022/07/01 06:48:25;;;;;;;37.08;30.38;;;16.30;99.90;;;;;;4978949;28;20488;-85
2022/07/01 06:50:51;;;;;;;34.97;29.02;;;16.40;99.90;;;;;;4978992;28;20057;-86
2022/07/01 06:53:17;;;;;;;35.28;28.98;;;16.60;99.90;;;;;;4978463;28;20046;-85
2022/07/01 06:55:42;;;;;;;32.10;28.67;;;16.60;99.90;;;;;;4962283;28;20050;-85
2022/07/01 06:58:09;;;;;;;36.10;29.38;;;16.60;99.90;;;;;;4962508;28;20062;-86
2022/07/01 07:00:35;;;;;;;31.20;27.88;;;16.60;99.90;;;;;;4962482;28;20057;-85
2022/07/01 07:03:01;;;;;;;33.08;29.48;;;16.70;99.90;;;;;;4979128;28;20072;-85
2022/07/01 07:05:29;;;;;;;32.58;28.85;;;16.60;99.90;;;;;;4978534;28;20367;-86
2022/07/01 07:07:55;;;;;;;31.98;28.63;;;16.50;99.90;;;;;;4963820;28;20058;-88
2022/07/01 07:10:21;;;;;;;31.20;28.02;;;16.60;99.90;;;;;;4978839;28;20364;-85
2022/07/01 07:12:47;;;;;;;31.95;28.70;;;16.50;99.90;;;;;;4962270;28;20046;-85
2022/07/01 07:15:12;;;;;;;30.60;27.42;;;16.60;99.90;;;;;;4978334;28;20156;-87
2022/07/01 07:17:38;;;;;;;31.98;27.92;;;16.50;99.90;;;;;;4978630;28;20117;-83
2022/07/01 07:20:04;;;;;;;32.42;28.83;;;16.50;99.90;;;;;;4963489;28;20053;-83
2022/07/01 07:22:30;;;;;;;34.25;29.63;;;16.30;99.90;;;;;;4963784;28;20051;-82
2022/07/01 07:24:56;;;;;;;32.65;29.25;;;16.40;99.90;;;;;;4963676;28;20061;-83
2022/07/01 07:27:22;;;;;;;33.78;30.00;;;16.50;99.90;;;;;;4977674;28;20060;-83
2022/07/01 07:29:47;;;;;;;34.65;29.42;;;16.40;99.90;;;;;;4978450;28;20050;-82
2022/07/01 07:32:13;;;;;;;35.55;31.05;;;16.40;99.90;;;;;;4978326;28;20054;-82
2022/07/01 07:34:38;;;;;;;34.22;30.55;;;16.60;99.90;;;;;;4977438;28;20428;-82
2022/07/01 07:37:04;;;;;;;32.90;29.40;;;16.30;99.90;;;;;;4961727;28;20368;-82
2022/07/01 07:39:30;;;;;;;33.45;29.98;;;16.50;99.90;;;;;;4961299;28;20376;-82
2022/07/01 07:41:56;;;;;;;33.03;29.38;;;16.30;99.90;;;;;;4977223;28;20054;-82
2022/07/01 07:44:21;;;;;;;31.08;27.58;;;16.40;99.90;;;;;;4977284;28;20074;-82
2022/07/01 07:46:47;;;;;;;29.77;25.83;;;16.60;99.90;;;;;;4977256;28;20038;-81
2022/07/01 07:49:13;;;;;;;27.85;25.13;;;16.80;99.90;;;;;;4977162;28;20133;-82
2022/07/01 07:51:38;;;;;;;28.95;25.75;;;16.70;99.90;;;;;;4961895;28;20082;-82
2022/07/01 07:54:04;;;;;;;29.38;26.25;;;16.60;99.90;;;;;;4978125;28;20042;-83
2022/07/01 07:56:30;;;;;;;32.95;27.67;;;16.60;99.90;;;;;;4945093;28;20457;-82
2022/07/01 07:58:56;;;;;;;30.75;27.55;;;16.60;99.90;;;;;;4960748;28;20125;-82
2022/07/01 08:01:22;;;;;;;30.73;27.50;;;16.80;99.90;;;;;;4961173;28;20060;-83
2022/07/01 08:03:48;;;;;;;28.00;25.20;;;17.00;99.90;;;;;;4960625;28;20042;-82
2022/07/01 08:06:13;;;;;;;27.20;24.40;;;17.30;99.90;;;;;;4961098;28;20190;-82
2022/07/01 08:08:39;;;;;;;29.63;25.27;;;17.70;99.90;;;;;;4976356;28;20564;-83
2022/07/01 08:11:05;;;;;;;25.45;22.88;;;17.50;99.90;;;;;;4976381;28;20093;-82
2022/07/01 08:13:31;;;;;;;27.25;24.35;;;17.40;99.90;;;;;;4976281;28;20475;-82
2022/07/01 08:15:56;;;;;;;28.48;24.20;;;17.50;99.90;;;;;;4994400;28;20065;-82
2022/07/01 08:18:22;;;;;;;24.17;21.08;;;17.30;99.90;;;;;;4961390;28;20060;-82
2022/07/01 08:20:52;;;;;;;24.02;21.33;;;17.70;99.90;;;;;;4961315;28;20463;-82
2022/07/01 08:23:18;;;;;;;23.17;20.88;;;17.80;99.90;;;;;;4961414;28;20129;-82
2022/07/01 08:25:44;;;;;;;23.20;20.90;;;18.10;99.90;;;;;;4960286;28;20116;-82
2022/07/01 08:28:10;;;;;;;22.45;20.20;;;18.30;99.90;;;;;;4993906;28;20042;-82
2022/07/01 08:30:35;;;;;;;23.40;21.05;;;18.30;99.90;;;;;;4976618;28;20046;-82
2022/07/01 08:33:01;;;;;;;23.02;20.63;;;18.30;99.90;;;;;;4993535;28;20042;-83
2022/07/01 08:35:27;;;;;;;20.85;18.63;;;18.30;99.90;;;;;;4976562;28;20053;-83
2022/07/01 08:37:53;;;;;;;22.27;20.02;;;18.20;99.90;;;;;;4960512;28;20082;-83
2022/07/01 08:40:18;;;;;;;24.08;19.17;;;18.40;99.90;;;;;;4976466;28;20101;-83
2022/07/01 08:42:44;;;;;;;19.75;17.73;;;18.40;99.90;;;;;;4959797;28;20494;-82
2022/07/01 08:45:09;;;;;;;19.60;17.48;;;18.70;99.90;;;;;;4976681;28;20173;-81
2022/07/01 08:47:49;;;;;;;17.83;15.95;;;19.30;99.90;;;;;;4960971;28;20088;-82
2022/07/01 08:50:15;;;;;;;17.58;15.80;;;19.40;99.90;;;;;;4976935;28;20051;-82
2022/07/01 08:52:41;;;;;;;19.30;15.82;;;19.40;99.90;;;;;;4978053;28;20054;-81
2022/07/01 08:55:06;;;;;;;17.60;13.52;;;19.60;99.90;;;;;;5004488;28;20054;-82
2022/07/01 08:57:32;;;;;;;16.13;14.43;;;19.20;99.90;;;;;;4977809;28;20050;-81
2022/07/01 09:00:04;;;;;;;14.30;12.90;;;19.30;99.90;;;;;;4961664;28;20129;-81
2022/07/01 09:02:49;;;;;;;15.85;12.07;;;20.30;99.90;;;;;;4976577;28;20054;-82
2022/07/01 09:05:14;;;;;;;14.25;11.52;;;20.70;99.90;;;;;;4976505;28;20130;-82
2022/07/01 09:07:40;;;;;;;10.80;9.77;;;21.20;99.90;;;;;;4977157;28;20185;-82
2022/07/01 09:10:17;;;;;;;12.18;10.70;;;21.00;99.90;;;;;;4976397;28;20082;-83
2022/07/01 09:12:43;;;;;;;13.40;9.48;;;20.70;99.90;;;;;;4960785;28;20073;-81
2022/07/01 09:15:31;;;;;;;10.85;9.75;;;20.80;99.90;;;;;;4976675;28;20129;-83
2022/07/01 09:18:17;;;;;;;9.60;8.50;;;20.40;99.90;;;;;;4949272;28;20106;-83
2022/07/01 09:20:44;;;;;;;11.27;9.32;;;20.10;99.90;;;;;;4964249;28;20062;-82
2022/07/01 09:23:11;;;;;;;11.55;10.27;;;20.30;99.90;;;;;;4980017;28;20058;-82
2022/07/01 09:25:48;;;;;;;14.63;9.50;;;20.30;99.90;;;;;;4963299;28;20058;-83
2022/07/01 09:28:18;;;;;;;10.98;9.60;;;20.50;99.90;;;;;;4964057;28;20046;-84
2022/07/01 09:30:46;;;;;;;13.15;10.07;;;20.40;99.90;;;;;;4964115;28;20467;-83
2022/07/01 09:33:12;;;;;;;11.73;10.60;;;20.40;99.90;;;;;;4979767;28;20046;-83
2022/07/01 09:35:38;;;;;;;12.00;9.35;;;19.90;99.90;;;;;;4980733;28;20058;-83
2022/07/01 09:38:05;;;;;;;13.02;9.18;;;20.10;99.90;;;;;;4965700;28;20077;-84
2022/07/01 09:40:51;;;;;;;10.40;9.40;;;20.10;99.90;;;;;;4997703;28;20113;-83
2022/07/01 09:43:35;;;;;;;12.57;9.18;;;20.30;99.90;;;;;;4964662;28;20058;-83
2022/07/01 09:46:07;;;;;;;10.95;9.10;;;20.40;99.90;;;;;;4964182;28;20050;-83
2022/07/01 09:48:33;;;;;;;10.88;9.00;;;20.20;99.90;;;;;;4964102;28;20057;-84
2022/07/01 09:50:59;;;;;;;9.38;8.40;;;19.90;99.90;;;;;;4980117;28;20050;-84
2022/07/01 09:53:25;;;;;;;9.23;7.88;;;19.90;99.90;;;;;;4947837;28;20136;-84
2022/07/01 09:55:51;;;;;;;10.75;8.63;;;19.80;99.90;;;;;;4947233;28;20062;-83
2022/07/01 09:58:17;;;;;;;11.15;8.05;;;19.80;99.90;;;;;;4963419;28;20054;-83
2022/07/01 10:00:42;;;;;;;10.00;8.10;;;20.30;99.90;;;;;;4962983;28;20062;-84
2022/07/01 10:03:08;;;;;;;12.80;7.43;;;20.70;99.90;;;;;;4979249;28;20082;-84
2022/07/01 10:05:49;;;;;;;7.75;6.55;;;20.60;99.90;;;;;;4947284;28;20129;-84
2022/07/01 10:08:19;;;;;;;11.18;6.65;;;20.70;99.90;;;;;;4964270;28;20486;-85
2022/07/01 10:10:51;;;;;;;10.57;7.28;;;20.10;99.90;;;;;;4963286;28;20474;-85
2022/07/01 10:13:17;;;;;;;13.15;8.82;;;20.30;99.90;;;;;;4948388;28;20054;-85
2022/07/01 10:15:45;;;;;;;10.52;8.23;;;20.20;99.90;;;;;;4947432;28;20050;-85
2022/07/01 10:18:26;;;;;;;9.85;8.07;;;20.20;99.90;;;;;;4932147;28;20050;-85
2022/07/01 10:20:52;;;;;;;8.95;7.03;;;20.70;99.90;;;;;;4964014;28;20042;-84
2022/07/01 10:23:22;;;;;;;10.88;7.80;;;21.30;99.90;;;;;;4946940;28;20363;-85
2022/07/01 10:25:49;;;;;;;10.15;8.25;;;21.80;99.90;;;;;;4978585;28;20086;-84
2022/07/01 10:28:16;;;;;;;10.85;7.45;;;21.90;99.90;;;;;;4962699;28;20050;-84
2022/07/01 10:31:10;;;;;;;9.45;6.95;;;21.40;99.90;;;;;;4963450;28;20066;-84
2022/07/01 10:33:47;;;;;;;11.27;7.57;;;21.40;99.90;;;;;;4996278;28;20485;-84
2022/07/01 10:36:22;;;;;;;8.30;6.38;;;21.30;99.90;;;;;;4978607;28;20057;-84
2022/07/01 10:39:06;;;;;;;9.40;6.65;;;21.60;99.90;;;;;;4995858;28;20046;-85
2022/07/01 10:41:33;;;;;;;9.68;6.20;;;21.60;99.90;;;;;;4978488;28;20047;-85
2022/07/01 10:44:02;;;;;;;14.35;6.60;;;22.20;99.90;;;;;;4978182;28;20058;-85
2022/07/01 10:46:43;;;;;;;9.25;6.45;;;22.30;99.90;;;;;;4979415;28;20050;-83
2022/07/01 10:49:13;;;;;;;9.48;5.70;;;22.40;99.90;;;;;;4962719;28;20054;-83
2022/07/01 10:51:55;;;;;;;7.47;5.13;;;22.70;99.90;;;;;;4962251;28;20062;-85
2022/07/01 10:54:45;;;;;;;8.77;4.50;;;23.00;99.90;;;;;;4978815;28;20475;-83
2022/07/01 10:57:19;;;;;;;8.50;4.00;;;23.00;99.90;;;;;;4971950;28;20058;-83
2022/07/01 10:59:48;;;;;;;9.68;4.22;;;22.80;99.90;;;;;;4961573;28;20083;-83
2022/07/01 11:02:22;;;;;;;6.88;4.60;;;22.50;99.90;;;;;;4946583;28;20063;-83
2022/07/01 11:04:48;;;;;;;8.85;4.25;;;22.10;99.90;;;;;;4962361;28;20089;-82
2022/07/01 11:07:14;;;;;;;7.00;4.10;;;21.90;99.90;;;;;;4945901;28;20129;-83
2022/07/01 11:09:40;;;;;;;6.80;4.28;;;21.70;99.90;;;;;;4945664;28;20125;-83
2022/07/01 11:12:06;;;;;;;8.23;3.78;;;22.00;99.90;;;;;;4945714;28;20125;-83
2022/07/01 11:14:39;;;;;;;5.65;3.70;;;22.50;99.90;;;;;;4962188;28;20154;-83
2022/07/01 11:17:05;;;;;;;6.20;3.72;;;22.80;99.90;;;;;;4962463;28;20054;-83
2022/07/01 11:19:31;;;;;;;7.85;4.25;;;23.00;99.90;;;;;;4948618;28;20049;-84
2022/07/01 11:21:57;;;;;;;7.65;4.85;;;22.90;99.90;;;;;;4951632;28;20176;-83
2022/07/01 11:24:23;;;;;;;5.97;4.20;;;23.50;99.90;;;;;;4963562;28;20086;-84
2022/07/01 11:26:49;;;;;;;6.95;4.68;;;23.10;99.90;;;;;;4997682;28;20064;-85
2022/07/01 11:29:15;;;;;;;6.15;4.60;;;22.90;99.90;;;;;;4982396;28;20045;-83
2022/07/01 11:31:41;;;;;;;5.00;4.20;;;22.50;99.90;;;;;;4998677;28;20049;-84
2022/07/01 11:34:08;;;;;;;5.45;4.20;;;22.30;99.90;;;;;;5014562;28;20049;-83
2022/07/01 11:39:25;;;;;;;7.85;3.80;;;22.10;99.90;;;;;;4996944;28;20057;-84
2022/07/01 11:41:58;;;;;;;6.90;3.40;;;22.40;99.90;;;;;;4980734;28;20050;-84
2022/07/01 11:44:43;;;;;;;6.22;3.55;;;22.70;99.90;;;;;;4996967;28;20123;-85
2022/07/01 11:47:22;;;;;;;4.85;3.13;;;22.60;99.90;;;;;;4997313;28;20056;-84
2022/07/01 11:49:48;;;;;;;3.40;2.80;;;22.60;99.90;;;;;;4982324;28;20096;-85
2022/07/01 11:52:14;;;;;;;5.88;2.80;;;22.60;99.90;;;;;;4980696;28;20058;-85
2022/07/01 11:54:40;;;;;;;4.38;2.80;;;22.50;99.90;;;;;;4980606;28;20049;-85
2022/07/01 11:57:13;;;;;;;5.57;2.35;;;22.90;99.90;;;;;;4997174;28;20046;-84
2022/07/01 11:59:39;;;;;;;3.28;2.05;;;23.00;99.90;;;;;;5014230;28;20054;-85
2022/07/01 12:02:05;;;;;;;4.68;2.40;;;22.70;99.90;;;;;;4996179;28;20052;-84
2022/07/01 12:04:31;;;;;;;5.07;2.92;;;22.70;99.90;;;;;;4980512;28;20053;-84
2022/07/01 12:06:58;;;;;;;6.85;2.10;;;22.70;99.90;;;;;;4980414;28;20089;-85
2022/07/01 12:09:23;;;;;;;5.80;2.38;;;22.30;99.90;;;;;;4980552;28;20095;-85
2022/07/01 12:11:51;;;;;;;5.07;2.35;;;22.00;99.90;;;;;;4996898;28;20124;-86
2022/07/01 12:14:27;;;;;;;4.82;1.75;;;21.70;99.90;;;;;;4980813;28;20054;-85
2022/07/01 12:16:54;;;;;;;6.72;2.08;;;21.60;99.90;;;;;;4980406;28;20053;-83
2022/07/01 12:19:24;;;;;;;3.90;1.50;;;21.50;99.90;;;;;;4980433;28;20086;-82
2022/07/01 12:21:56;;;;;;;3.75;1.70;;;21.00;99.90;;;;;;4980158;28;20046;-84
2022/07/01 12:24:22;;;;;;;3.90;1.55;;;21.30;99.90;;;;;;4980904;28;20057;-82
2022/07/01 12:27:03;;;;;;;3.38;1.45;;;21.90;99.90;;;;;;4994358;28;20054;-83
2022/07/01 12:29:45;;;;;;;4.97;1.65;;;22.20;99.90;;;;;;4993939;28;20057;-83
2022/07/01 12:32:12;;;;;;;3.80;1.52;;;22.30;99.90;;;;;;4994641;28;20125;-82
2022/07/01 12:34:51;;;;;;;5.97;1.75;;;22.10;99.90;;;;;;4960654;28;20487;-82
2022/07/01 12:37:18;;;;;;;4.93;1.70;;;21.70;99.90;;;;;;4994687;28;20479;-83
2022/07/01 12:39:51;;;;;;;4.47;1.58;;;21.70;99.90;;;;;;4961210;28;20406;-82
2022/07/01 12:42:24;;;;;;;6.65;2.45;;;21.60;99.90;;;;;;4994163;28;20043;-83
2022/07/01 12:44:51;;;;;;;2.88;1.30;;;21.70;99.90;;;;;;4976306;28;20050;-83
2022/07/01 12:47:27;;;;;;;3.25;1.50;;;21.30;99.90;;;;;;4960977;28;20125;-83
2022/07/01 12:50:22;;;;;;;5.97;1.33;;;20.80;99.90;;;;;;4994808;28;20054;-83
2022/07/01 12:53:02;;;;;;;3.70;2.15;;;21.10;99.90;;;;;;4981008;28;20054;-83
2022/07/01 12:55:32;;;;;;;3.75;1.35;;;21.50;99.90;;;;;;4948864;28;20061;-84